sensor_id;sensor_type;location;lat;lon;timestamp;temperature;humidity
39371;DHT22;25099;51.946;4.838;2022-12-18T00:01:48;-2.00;99.90
39371;DHT22;25099;51.946;4.838;2022-12-18T00:04:24;-2.00;99.90
39371;DHT22;25099;51.946;4.838;2022-12-18T00:06:50;-2.10;99.90
39371;DHT22;25099;51.946;4.838;2022-12-18T00:09:16;-2.10;99.90
39371;DHT22;25099;51.946;4.838;2022-12-18T00:11:42;-2.10;99.90
39371;DHT22;25099;51.946;4.838;2022-12-18T00:14:09;-2.10;99.90
39371;DHT22;25099;51.946;4.838;2022-12-18T00:16:35;-2.10;99.90
39371;DHT22;25099;51.946;4.838;2022-12-18T00:19:03;-2.10;99.90
39371;DHT22;25099;51.946;4.838;2022-12-18T00:21:32;-2.10;99.90
39371;DHT22;25099;51.946;4.838;2022-12-18T00:23:59;-2.10;99.90
39371;DHT22;25099;51.946;4.838;2022-12-18T00:26:30;-2.10;99.90
39371;DHT22;25099;51.946;4.838;2022-12-18T00:29:15;-2.10;99.90
39371;DHT22;25099;51.946;4.838;2022-12-18T00:31:41;-2.20;99.90
39371;DHT22;25099;51.946;4.838;2022-12-18T00:34:10;-2.20;99.90
39371;DHT22;25099;51.946;4.838;2022-12-18T00:36:36;-2.30;99.90
39371;DHT22;25099;51.946;4.838;2022-12-18T00:39:04;-2.30;99.90
39371;DHT22;25099;51.946;4.838;2022-12-18T00:41:30;-2.30;99.90
39371;DHT22;25099;51.946;4.838;2022-12-18T00:44:16;-2.40;99.90
39371;DHT22;25099;51.946;4.838;2022-12-18T00:46:43;-2.30;99.90
39371;DHT22;25099;51.946;4.838;2022-12-18T00:49:09;-2.30;99.90
39371;DHT22;25099;51.946;4.838;2022-12-18T00:51:35;-2.40;99.90
39371;DHT22;25099;51.946;4.838;2022-12-18T00:54:01;-2.40;99.90
39371;DHT22;25099;51.946;4.838;2022-12-18T00:56:26;-2.40;99.90
39371;DHT22;25099;51.946;4.838;2022-12-18T00:58:52;-2.40;99.90
39371;DHT22;25099;51.946;4.838;2022-12-18T01:01:18;-2.30;99.90
39371;DHT22;25099;51.946;4.838;2022-12-18T01:03:43;-2.40;99.90
39371;DHT22;25099;51.946;4.838;2022-12-18T01:06:11;-2.40;99.90
39371;DHT22;25099;51.946;4.838;2022-12-18T01:08:38;-2.40;99.90
39371;DHT22;25099;51.946;4.838;2022-12-18T01:11:12;-2.40;99.90
39371;DHT22;25099;51.946;4.838;2022-12-18T01:13:38;-2.30;99.90
39371;DHT22;25099;51.946;4.838;2022-12-18T01:16:05;-2.30;99.90
39371;DHT22;25099;51.946;4.838;2022-12-18T01:18:30;-2.40;99.90
39371;DHT22;25099;51.946;4.838;2022-12-18T01:20:56;-2.40;99.90
39371;DHT22;25099;51.946;4.838;2022-12-18T01:23:22;-2.40;99.90
39371;DHT22;25099;51.946;4.838;2022-12-18T01:25:48;-2.40;99.90
39371;DHT22;25099;51.946;4.838;2022-12-18T01:28:13;-2.50;99.90
39371;DHT22;25099;51.946;4.838;2022-12-18T01:30:39;-2.40;99.90
39371;DHT22;25099;51.946;4.838;2022-12-18T01:33:05;-2.40;99.90
39371;DHT22;25099;51.946;4.838;2022-12-18T01:35:31;-2.40;99.90
39371;DHT22;25099;51.946;4.838;2022-12-18T01:37:57;-2.40;99.90
39371;DHT22;25099;51.946;4.838;2022-12-18T01:40:23;-2.40;99.90
39371;DHT22;25099;51.946;4.838;2022-12-18T01:42:55;-2.40;99.90
39371;DHT22;25099;51.946;4.838;2022-12-18T01:45:29;-2.50;99.90
39371;DHT22;25099;51.946;4.838;2022-12-18T01:48:01;-2.50;99.90
39371;DHT22;25099;51.946;4.838;2022-12-18T01:50:32;-2.50;99.90
39371;DHT22;25099;51.946;4.838;2022-12-18T01:53:13;-2.50;99.90
39371;DHT22;25099;51.946;4.838;2022-12-18T01:55:51;-2.50;99.90
39371;DHT22;25099;51.946;4.838;2022-12-18T01:58:18;-2.60;99.90
39371;DHT22;25099;51.946;4.838;2022-12-18T02:00:44;-2.60;99.90
39371;DHT22;25099;51.946;4.838;2022-12-18T02:03:10;-2.50;99.90
39371;DHT22;25099;51.946;4.838;2022-12-18T02:06:06;-2.50;99.90
39371;DHT22;25099;51.946;4.838;2022-12-18T02:27:39;-2.70;99.90
39371;DHT22;25099;51.946;4.838;2022-12-18T02:30:07;-2.70;99.90
39371;DHT22;25099;51.946;4.838;2022-12-18T02:32:47;-2.70;99.90
39371;DHT22;25099;51.946;4.838;2022-12-18T02:35:23;-2.70;99.90
39371;DHT22;25099;51.946;4.838;2022-12-18T02:37:54;-2.70;99.90
39371;DHT22;25099;51.946;4.838;2022-12-18T02:40:23;-2.70;99.90
39371;DHT22;25099;51.946;4.838;2022-12-18T02:42:50;-2.80;99.90
39371;DHT22;25099;51.946;4.838;2022-12-18T02:45:15;-2.70;99.90
39371;DHT22;25099;51.946;4.838;2022-12-18T02:47:43;-2.80;99.90
39371;DHT22;25099;51.946;4.838;2022-12-18T02:50:24;-2.80;99.90
39371;DHT22;25099;51.946;4.838;2022-12-18T02:53:00;-2.80;99.90
39371;DHT22;25099;51.946;4.838;2022-12-18T02:55:49;-2.80;99.90
39371;DHT22;25099;51.946;4.838;2022-12-18T03:01:46;-2.90;99.90
39371;DHT22;25099;51.946;4.838;2022-12-18T03:04:41;-2.90;99.90
39371;DHT22;25099;51.946;4.838;2022-12-18T03:07:14;-2.80;99.90
39371;DHT22;25099;51.946;4.838;2022-12-18T03:09:44;-2.90;99.90
39371;DHT22;25099;51.946;4.838;2022-12-18T03:17:33;-3.10;99.90
39371;DHT22;25099;51.946;4.838;2022-12-18T03:20:05;-3.20;99.90
39371;DHT22;25099;51.946;4.838;2022-12-18T03:22:35;-3.20;99.90
39371;DHT22;25099;51.946;4.838;2022-12-18T03:25:06;-3.30;99.90
39371;DHT22;25099;51.946;4.838;2022-12-18T03:27:36;-3.40;99.90
39371;DHT22;25099;51.946;4.838;2022-12-18T03:30:07;-3.40;99.90
39371;DHT22;25099;51.946;4.838;2022-12-18T03:32:48;-3.40;99.90
39371;DHT22;25099;51.946;4.838;2022-12-18T03:35:21;-3.50;99.90
39371;DHT22;25099;51.946;4.838;2022-12-18T03:37:48;-3.60;99.90
39371;DHT22;25099;51.946;4.838;2022-12-18T03:40:13;-3.60;99.90
39371;DHT22;25099;51.946;4.838;2022-12-18T03:43:02;-3.60;99.90
39371;DHT22;25099;51.946;4.838;2022-12-18T03:45:35;-3.70;99.90
39371;DHT22;25099;51.946;4.838;2022-12-18T03:48:27;-3.70;99.90
39371;DHT22;25099;51.946;4.838;2022-12-18T03:51:23;-3.80;99.90
39371;DHT22;25099;51.946;4.838;2022-12-18T03:54:02;-3.80;99.90
39371;DHT22;25099;51.946;4.838;2022-12-18T03:56:33;-3.80;99.90
39371;DHT22;25099;51.946;4.838;2022-12-18T03:58:59;-3.90;99.90
39371;DHT22;25099;51.946;4.838;2022-12-18T04:01:31;-3.90;99.90
39371;DHT22;25099;51.946;4.838;2022-12-18T04:03:59;-3.90;99.90
39371;DHT22;25099;51.946;4.838;2022-12-18T04:06:27;-3.90;99.90
39371;DHT22;25099;51.946;4.838;2022-12-18T04:08:54;-3.90;99.90
39371;DHT22;25099;51.946;4.838;2022-12-18T04:11:19;-3.90;99.90
39371;DHT22;25099;51.946;4.838;2022-12-18T04:13:45;-3.90;99.90
39371;DHT22;25099;51.946;4.838;2022-12-18T04:16:11;-4.00;99.90
39371;DHT22;25099;51.946;4.838;2022-12-18T04:18:36;-3.90;99.90
39371;DHT22;25099;51.946;4.838;2022-12-18T04:21:03;-4.00;99.90
39371;DHT22;25099;51.946;4.838;2022-12-18T04:23:28;-4.00;99.90
39371;DHT22;25099;51.946;4.838;2022-12-18T04:25:54;-4.00;99.90
39371;DHT22;25099;51.946;4.838;2022-12-18T04:28:20;-4.00;99.90
39371;DHT22;25099;51.946;4.838;2022-12-18T04:30:46;-4.10;99.90
39371;DHT22;25099;51.946;4.838;2022-12-18T04:33:12;-4.10;99.90
39371;DHT22;25099;51.946;4.838;2022-12-18T04:35:43;-4.10;99.90
39371;DHT22;25099;51.946;4.838;2022-12-18T04:38:09;-4.20;99.90
39371;DHT22;25099;51.946;4.838;2022-12-18T04:40:36;-4.20;99.90
39371;DHT22;25099;51.946;4.838;2022-12-18T04:43:11;-4.20;99.90
39371;DHT22;25099;51.946;4.838;2022-12-18T04:45:36;-4.20;99.90
39371;DHT22;25099;51.946;4.838;2022-12-18T04:48:03;-4.30;99.90
39371;DHT22;25099;51.946;4.838;2022-12-18T04:50:30;-4.30;99.90
39371;DHT22;25099;51.946;4.838;2022-12-18T04:52:55;-4.30;99.90
39371;DHT22;25099;51.946;4.838;2022-12-18T04:55:21;-4.30;99.90
39371;DHT22;25099;51.946;4.838;2022-12-18T04:57:47;-4.30;99.90
39371;DHT22;25099;51.946;4.838;2022-12-18T05:00:13;-4.30;99.90
39371;DHT22;25099;51.946;4.838;2022-12-18T05:02:41;-4.30;99.90
39371;DHT22;25099;51.946;4.838;2022-12-18T05:05:07;-4.10;99.90
39371;DHT22;25099;51.946;4.838;2022-12-18T05:07:33;-4.40;99.90
39371;DHT22;25099;51.946;4.838;2022-12-18T05:09:59;-4.40;99.90
39371;DHT22;25099;51.946;4.838;2022-12-18T05:12:24;-4.40;99.90
39371;DHT22;25099;51.946;4.838;2022-12-18T05:14:50;-4.40;99.90
39371;DHT22;25099;51.946;4.838;2022-12-18T05:17:16;-4.40;99.90
39371;DHT22;25099;51.946;4.838;2022-12-18T05:19:41;-4.40;99.90
39371;DHT22;25099;51.946;4.838;2022-12-18T05:22:07;-4.30;99.90
39371;DHT22;25099;51.946;4.838;2022-12-18T05:24:33;-4.40;99.90
39371;DHT22;25099;51.946;4.838;2022-12-18T05:26:58;-4.30;99.90
39371;DHT22;25099;51.946;4.838;2022-12-18T05:29:24;-4.40;99.90
39371;DHT22;25099;51.946;4.838;2022-12-18T05:31:49;-4.30;99.90
39371;DHT22;25099;51.946;4.838;2022-12-18T05:34:15;-4.40;99.90
39371;DHT22;25099;51.946;4.838;2022-12-18T05:36:41;-4.30;99.90
39371;DHT22;25099;51.946;4.838;2022-12-18T05:39:06;-4.40;99.90
39371;DHT22;25099;51.946;4.838;2022-12-18T05:41:32;-4.30;99.90
39371;DHT22;25099;51.946;4.838;2022-12-18T05:43:58;-4.40;99.90
39371;DHT22;25099;51.946;4.838;2022-12-18T05:46:24;-4.30;99.90
39371;DHT22;25099;51.946;4.838;2022-12-18T05:48:50;-4.30;99.90
39371;DHT22;25099;51.946;4.838;2022-12-18T05:51:19;-4.30;99.90
39371;DHT22;25099;51.946;4.838;2022-12-18T05:53:45;-4.30;99.90
39371;DHT22;25099;51.946;4.838;2022-12-18T05:56:18;-4.40;99.90
39371;DHT22;25099;51.946;4.838;2022-12-18T05:58:44;-4.40;99.90
39371;DHT22;25099;51.946;4.838;2022-12-18T06:01:11;-4.40;99.90
39371;DHT22;25099;51.946;4.838;2022-12-18T06:03:37;-4.40;99.90
39371;DHT22;25099;51.946;4.838;2022-12-18T06:06:03;-4.40;99.90
39371;DHT22;25099;51.946;4.838;2022-12-18T06:08:29;-4.40;99.90
39371;DHT22;25099;51.946;4.838;2022-12-18T06:10:55;-4.50;99.90
39371;DHT22;25099;51.946;4.838;2022-12-18T06:13:21;-4.60;99.90
39371;DHT22;25099;51.946;4.838;2022-12-18T06:15:49;-4.60;99.90
39371;DHT22;25099;51.946;4.838;2022-12-18T06:18:15;-4.60;99.90
39371;DHT22;25099;51.946;4.838;2022-12-18T06:20:40;-4.60;99.90
39371;DHT22;25099;51.946;4.838;2022-12-18T06:23:07;-4.60;99.90
39371;DHT22;25099;51.946;4.838;2022-12-18T06:25:33;-4.60;99.90
39371;DHT22;25099;51.946;4.838;2022-12-18T06:27:59;-4.60;99.90
39371;DHT22;25099;51.946;4.838;2022-12-18T06:30:24;-4.60;99.90
39371;DHT22;25099;51.946;4.838;2022-12-18T06:32:50;-4.60;99.90
39371;DHT22;25099;51.946;4.838;2022-12-18T06:35:16;-4.60;99.90
39371;DHT22;25099;51.946;4.838;2022-12-18T06:37:42;-4.60;99.90
39371;DHT22;25099;51.946;4.838;2022-12-18T06:40:08;-4.60;99.90
39371;DHT22;25099;51.946;4.838;2022-12-18T06:42:33;-4.70;99.90
39371;DHT22;25099;51.946;4.838;2022-12-18T06:44:59;-4.70;99.90
39371;DHT22;25099;51.946;4.838;2022-12-18T06:47:25;-4.70;99.90
39371;DHT22;25099;51.946;4.838;2022-12-18T06:49:50;-4.70;99.90
39371;DHT22;25099;51.946;4.838;2022-12-18T06:52:16;-4.70;99.90
39371;DHT22;25099;51.946;4.838;2022-12-18T06:54:41;-4.70;99.90
39371;DHT22;25099;51.946;4.838;2022-12-18T06:57:07;-4.70;99.90
39371;DHT22;25099;51.946;4.838;2022-12-18T06:59:32;-4.70;99.90
39371;DHT22;25099;51.946;4.838;2022-12-18T07:02:01;-4.70;99.90
39371;DHT22;25099;51.946;4.838;2022-12-18T07:04:30;-4.80;99.90
39371;DHT22;25099;51.946;4.838;2022-12-18T07:06:56;-4.80;99.90
39371;DHT22;25099;51.946;4.838;2022-12-18T07:09:21;-4.80;99.90
39371;DHT22;25099;51.946;4.838;2022-12-18T07:11:47;-4.70;99.90
39371;DHT22;25099;51.946;4.838;2022-12-18T07:14:12;-4.80;99.90
39371;DHT22;25099;51.946;4.838;2022-12-18T07:16:38;-4.80;99.90
39371;DHT22;25099;51.946;4.838;2022-12-18T07:19:04;-4.80;99.90
39371;DHT22;25099;51.946;4.838;2022-12-18T07:21:29;-4.80;99.90
39371;DHT22;25099;51.946;4.838;2022-12-18T07:23:55;-4.80;99.90
39371;DHT22;25099;51.946;4.838;2022-12-18T07:26:21;-4.80;99.90
39371;DHT22;25099;51.946;4.838;2022-12-18T07:28:47;-4.80;99.90
39371;DHT22;25099;51.946;4.838;2022-12-18T07:31:16;-4.80;99.90
39371;DHT22;25099;51.946;4.838;2022-12-18T07:33:42;-4.80;99.90
39371;DHT22;25099;51.946;4.838;2022-12-18T07:36:09;-4.80;99.90
39371;DHT22;25099;51.946;4.838;2022-12-18T07:38:36;-4.80;99.90
39371;DHT22;25099;51.946;4.838;2022-12-18T07:41:10;-4.80;99.90
39371;DHT22;25099;51.946;4.838;2022-12-18T07:43:37;-4.80;99.90
39371;DHT22;25099;51.946;4.838;2022-12-18T07:46:03;-4.80;99.90
39371;DHT22;25099;51.946;4.838;2022-12-18T07:48:29;-4.70;99.90
39371;DHT22;25099;51.946;4.838;2022-12-18T07:51:04;-4.70;99.90
39371;DHT22;25099;51.946;4.838;2022-12-18T07:53:31;-4.70;99.90
39371;DHT22;25099;51.946;4.838;2022-12-18T07:56:02;-4.60;99.90
39371;DHT22;25099;51.946;4.838;2022-12-18T07:58:29;-4.60;99.90
39371;DHT22;25099;51.946;4.838;2022-12-18T08:01:01;-4.60;99.90
39371;DHT22;25099;51.946;4.838;2022-12-18T08:03:27;-4.60;99.90
39371;DHT22;25099;51.946;4.838;2022-12-18T08:05:52;-4.60;99.90
39371;DHT22;25099;51.946;4.838;2022-12-18T08:08:18;-4.50;99.90
39371;DHT22;25099;51.946;4.838;2022-12-18T08:10:43;-4.50;99.90
39371;DHT22;25099;51.946;4.838;2022-12-18T08:13:10;-4.50;99.90
39371;DHT22;25099;51.946;4.838;2022-12-18T08:15:35;-4.50;99.90
39371;DHT22;25099;51.946;4.838;2022-12-18T08:18:01;-4.50;99.90
39371;DHT22;25099;51.946;4.838;2022-12-18T08:20:27;-4.50;99.90
39371;DHT22;25099;51.946;4.838;2022-12-18T08:22:52;-4.50;99.90
39371;DHT22;25099;51.946;4.838;2022-12-18T08:25:18;-4.50;99.90
39371;DHT22;25099;51.946;4.838;2022-12-18T08:27:44;-4.50;99.90
39371;DHT22;25099;51.946;4.838;2022-12-18T08:30:10;-4.40;99.90
39371;DHT22;25099;51.946;4.838;2022-12-18T08:32:36;-4.40;99.90
39371;DHT22;25099;51.946;4.838;2022-12-18T08:35:01;-4.40;99.90
39371;DHT22;25099;51.946;4.838;2022-12-18T08:37:27;-4.40;99.90
39371;DHT22;25099;51.946;4.838;2022-12-18T08:39:53;-4.30;99.90
39371;DHT22;25099;51.946;4.838;2022-12-18T08:42:18;-4.30;99.90
39371;DHT22;25099;51.946;4.838;2022-12-18T08:45:03;-4.30;99.90
39371;DHT22;25099;51.946;4.838;2022-12-18T08:47:28;-4.20;99.90
39371;DHT22;25099;51.946;4.838;2022-12-18T08:49:54;-4.20;99.90
39371;DHT22;25099;51.946;4.838;2022-12-18T08:52:20;-4.10;99.90
39371;DHT22;25099;51.946;4.838;2022-12-18T08:54:45;-4.00;99.90
39371;DHT22;25099;51.946;4.838;2022-12-18T08:57:11;-4.00;99.90
39371;DHT22;25099;51.946;4.838;2022-12-18T08:59:36;-4.00;99.90
39371;DHT22;25099;51.946;4.838;2022-12-18T09:02:02;-3.90;99.90
39371;DHT22;25099;51.946;4.838;2022-12-18T09:04:28;-3.90;99.90
39371;DHT22;25099;51.946;4.838;2022-12-18T09:06:56;-3.90;99.90
39371;DHT22;25099;51.946;4.838;2022-12-18T09:09:22;-3.90;99.90
39371;DHT22;25099;51.946;4.838;2022-12-18T09:11:47;-3.80;99.90
39371;DHT22;25099;51.946;4.838;2022-12-18T09:14:13;-3.80;99.90
39371;DHT22;25099;51.946;4.838;2022-12-18T09:16:38;-3.70;99.90
39371;DHT22;25099;51.946;4.838;2022-12-18T09:19:04;-3.70;99.90
39371;DHT22;25099;51.946;4.838;2022-12-18T09:21:33;-3.50;99.90
39371;DHT22;25099;51.946;4.838;2022-12-18T09:23:59;-3.50;99.90
39371;DHT22;25099;51.946;4.838;2022-12-18T09:26:25;-3.50;99.90
39371;DHT22;25099;51.946;4.838;2022-12-18T09:28:51;-3.40;99.90
39371;DHT22;25099;51.946;4.838;2022-12-18T09:31:20;-3.40;99.90
39371;DHT22;25099;51.946;4.838;2022-12-18T09:33:56;-3.40;99.90
39371;DHT22;25099;51.946;4.838;2022-12-18T09:36:22;-3.30;99.90
39371;DHT22;25099;51.946;4.838;2022-12-18T09:38:47;-3.30;99.90
39371;DHT22;25099;51.946;4.838;2022-12-18T09:41:25;-3.20;99.90
39371;DHT22;25099;51.946;4.838;2022-12-18T09:44:01;-3.10;99.90
39371;DHT22;25099;51.946;4.838;2022-12-18T09:46:37;-3.10;99.90
39371;DHT22;25099;51.946;4.838;2022-12-18T09:49:09;-3.00;99.90
39371;DHT22;25099;51.946;4.838;2022-12-18T09:51:40;-2.80;99.90
39371;DHT22;25099;51.946;4.838;2022-12-18T09:54:14;-3.00;99.90
39371;DHT22;25099;51.946;4.838;2022-12-18T09:56:43;-2.90;99.90
39371;DHT22;25099;51.946;4.838;2022-12-18T09:59:23;-2.80;99.90
39371;DHT22;25099;51.946;4.838;2022-12-18T10:01:49;-2.70;99.90
39371;DHT22;25099;51.946;4.838;2022-12-18T10:04:15;-2.70;99.90
39371;DHT22;25099;51.946;4.838;2022-12-18T10:06:55;-2.60;99.90
39371;DHT22;25099;51.946;4.838;2022-12-18T10:09:37;-2.50;99.90
39371;DHT22;25099;51.946;4.838;2022-12-18T10:14:56;-2.40;99.90
39371;DHT22;25099;51.946;4.838;2022-12-18T10:20:08;-2.30;99.90
39371;DHT22;25099;51.946;4.838;2022-12-18T10:25:25;-2.20;99.90
39371;DHT22;25099;51.946;4.838;2022-12-18T10:27:55;-2.10;99.90
39371;DHT22;25099;51.946;4.838;2022-12-18T10:30:22;-2.10;99.90
39371;DHT22;25099;51.946;4.838;2022-12-18T10:32:49;-2.00;99.90
39371;DHT22;25099;51.946;4.838;2022-12-18T10:35:23;-2.00;99.90
39371;DHT22;25099;51.946;4.838;2022-12-18T10:38:22;-1.90;99.90
39371;DHT22;25099;51.946;4.838;2022-12-18T10:40:59;-2.60;99.90
39371;DHT22;25099;51.946;4.838;2022-12-18T10:43:31;-1.90;99.90
39371;DHT22;25099;51.946;4.838;2022-12-18T10:48:28;-1.80;99.90
39371;DHT22;25099;51.946;4.838;2022-12-18T10:50:55;-1.80;99.90
39371;DHT22;25099;51.946;4.838;2022-12-18T10:53:24;-1.70;99.90
39371;DHT22;25099;51.946;4.838;2022-12-18T10:55:52;-1.70;99.90
39371;DHT22;25099;51.946;4.838;2022-12-18T10:58:25;-1.60;99.90
39371;DHT22;25099;51.946;4.838;2022-12-18T11:01:03;-1.60;99.90
39371;DHT22;25099;51.946;4.838;2022-12-18T11:06:15;-1.50;99.90
39371;DHT22;25099;51.946;4.838;2022-12-18T11:08:43;-1.50;99.90
39371;DHT22;25099;51.946;4.838;2022-12-18T11:11:22;-1.50;99.90
39371;DHT22;25099;51.946;4.838;2022-12-18T11:14:04;-1.40;99.90
39371;DHT22;25099;51.946;4.838;2022-12-18T11:16:37;-1.40;99.90
39371;DHT22;25099;51.946;4.838;2022-12-18T11:19:19;-1.40;99.90
39371;DHT22;25099;51.946;4.838;2022-12-18T11:21:48;-1.30;99.90
39371;DHT22;25099;51.946;4.838;2022-12-18T11:24:34;-1.20;99.90
39371;DHT22;25099;51.946;4.838;2022-12-18T11:27:02;-1.20;99.90
39371;DHT22;25099;51.946;4.838;2022-12-18T11:29:35;-1.10;99.90
39371;DHT22;25099;51.946;4.838;2022-12-18T11:32:27;-1.10;99.90
39371;DHT22;25099;51.946;4.838;2022-12-18T11:35:10;-0.70;99.90
39371;DHT22;25099;51.946;4.838;2022-12-18T11:37:37;-1.00;99.90
39371;DHT22;25099;51.946;4.838;2022-12-18T11:40:17;-1.00;99.90
39371;DHT22;25099;51.946;4.838;2022-12-18T11:42:50;-0.90;99.90
39371;DHT22;25099;51.946;4.838;2022-12-18T11:46:07;-0.90;99.90
39371;DHT22;25099;51.946;4.838;2022-12-18T11:48:27;-0.80;99.90
39371;DHT22;25099;51.946;4.838;2022-12-18T11:50:58;-0.80;99.90
39371;DHT22;25099;51.946;4.838;2022-12-18T11:53:26;-0.80;99.90
39371;DHT22;25099;51.946;4.838;2022-12-18T11:56:30;-0.70;99.90
39371;DHT22;25099;51.946;4.838;2022-12-18T11:59:21;-0.70;99.90
39371;DHT22;25099;51.946;4.838;2022-12-18T12:05:10;-0.70;99.90
39371;DHT22;25099;51.946;4.838;2022-12-18T12:10:34;-0.60;99.90
39371;DHT22;25099;51.946;4.838;2022-12-18T12:26:39;-0.50;99.90
39371;DHT22;25099;51.946;4.838;2022-12-18T12:29:30;-0.50;99.90
39371;DHT22;25099;51.946;4.838;2022-12-18T12:40:34;-0.40;99.90
39371;DHT22;25099;51.946;4.838;2022-12-18T12:43:18;-0.40;99.90
39371;DHT22;25099;51.946;4.838;2022-12-18T12:45:54;-0.40;99.90
39371;DHT22;25099;51.946;4.838;2022-12-18T12:48:47;-0.50;99.90
39371;DHT22;25099;51.946;4.838;2022-12-18T12:51:28;-0.40;99.90
39371;DHT22;25099;51.946;4.838;2022-12-18T12:53:57;-0.40;99.90
39371;DHT22;25099;51.946;4.838;2022-12-18T12:56:36;-0.40;99.90
39371;DHT22;25099;51.946;4.838;2022-12-18T12:59:29;-0.50;99.90
39371;DHT22;25099;51.946;4.838;2022-12-18T13:04:50;-0.50;99.90
39371;DHT22;25099;51.946;4.838;2022-12-18T13:07:27;-0.50;99.90
39371;DHT22;25099;51.946;4.838;2022-12-18T13:15:43;-0.50;99.90
39371;DHT22;25099;51.946;4.838;2022-12-18T13:25:50;-0.40;99.90
39371;DHT22;25099;51.946;4.838;2022-12-18T13:28:23;-0.40;99.90
39371;DHT22;25099;51.946;4.838;2022-12-18T13:30:56;-0.40;99.90
39371;DHT22;25099;51.946;4.838;2022-12-18T13:38:47;-0.40;99.90
39371;DHT22;25099;51.946;4.838;2022-12-18T13:41:22;-0.40;99.90
39371;DHT22;25099;51.946;4.838;2022-12-18T13:43:50;-0.30;99.90
39371;DHT22;25099;51.946;4.838;2022-12-18T13:51:44;-0.30;99.90
39371;DHT22;25099;51.946;4.838;2022-12-18T13:54:33;-0.30;99.90
39371;DHT22;25099;51.946;4.838;2022-12-18T13:57:00;-0.30;99.90
39371;DHT22;25099;51.946;4.838;2022-12-18T13:59:35;-0.30;99.90
39371;DHT22;25099;51.946;4.838;2022-12-18T14:02:11;-0.30;99.90
39371;DHT22;25099;51.946;4.838;2022-12-18T14:04:38;-0.30;99.90
39371;DHT22;25099;51.946;4.838;2022-12-18T14:07:14;-0.30;99.90
39371;DHT22;25099;51.946;4.838;2022-12-18T14:09:43;-0.30;99.90
39371;DHT22;25099;51.946;4.838;2022-12-18T14:12:29;-0.30;99.90
39371;DHT22;25099;51.946;4.838;2022-12-18T14:20:32;-0.20;99.90
39371;DHT22;25099;51.946;4.838;2022-12-18T14:22:58;-0.20;99.90
39371;DHT22;25099;51.946;4.838;2022-12-18T14:25:27;-0.20;99.90
39371;DHT22;25099;51.946;4.838;2022-12-18T14:30:37;-0.20;99.90
39371;DHT22;25099;51.946;4.838;2022-12-18T14:35:52;-0.10;99.90
39371;DHT22;25099;51.946;4.838;2022-12-18T14:38:20;-0.10;99.90
39371;DHT22;25099;51.946;4.838;2022-12-18T14:40:51;-0.20;99.90
39371;DHT22;25099;51.946;4.838;2022-12-18T14:43:20;-0.10;99.90
39371;DHT22;25099;51.946;4.838;2022-12-18T14:45:47;-0.10;99.90
39371;DHT22;25099;51.946;4.838;2022-12-18T14:48:19;-0.20;99.90
39371;DHT22;25099;51.946;4.838;2022-12-18T14:50:55;-0.20;99.90
39371;DHT22;25099;51.946;4.838;2022-12-18T14:53:26;-0.20;99.90
39371;DHT22;25099;51.946;4.838;2022-12-18T14:55:54;-0.20;99.90
39371;DHT22;25099;51.946;4.838;2022-12-18T14:58:19;-0.30;99.90
39371;DHT22;25099;51.946;4.838;2022-12-18T15:00:45;-0.20;99.90
39371;DHT22;25099;51.946;4.838;2022-12-18T15:03:20;-0.20;99.90
39371;DHT22;25099;51.946;4.838;2022-12-18T15:05:46;-0.20;99.90
39371;DHT22;25099;51.946;4.838;2022-12-18T15:08:36;-0.20;99.90
39371;DHT22;25099;51.946;4.838;2022-12-18T15:11:02;-0.20;99.90
39371;DHT22;25099;51.946;4.838;2022-12-18T15:13:28;-0.20;99.90
39371;DHT22;25099;51.946;4.838;2022-12-18T15:15:57;-0.20;99.90
39371;DHT22;25099;51.946;4.838;2022-12-18T15:18:42;-0.20;99.90
39371;DHT22;25099;51.946;4.838;2022-12-18T15:21:10;-0.10;99.90
39371;DHT22;25099;51.946;4.838;2022-12-18T15:23:45;-0.20;99.90
39371;DHT22;25099;51.946;4.838;2022-12-18T15:26:13;-0.30;99.90
39371;DHT22;25099;51.946;4.838;2022-12-18T15:28:48;-0.30;99.90
39371;DHT22;25099;51.946;4.838;2022-12-18T15:33:41;-0.20;99.90
39371;DHT22;25099;51.946;4.838;2022-12-18T15:36:16;-0.20;99.90
39371;DHT22;25099;51.946;4.838;2022-12-18T15:38:45;-0.20;99.90
39371;DHT22;25099;51.946;4.838;2022-12-18T15:41:14;-0.10;99.90
39371;DHT22;25099;51.946;4.838;2022-12-18T15:43:40;-0.10;99.90
39371;DHT22;25099;51.946;4.838;2022-12-18T15:46:09;-0.10;99.90
39371;DHT22;25099;51.946;4.838;2022-12-18T15:48:39;-0.10;99.90
39371;DHT22;25099;51.946;4.838;2022-12-18T15:51:13;-0.10;99.90
39371;DHT22;25099;51.946;4.838;2022-12-18T15:53:40;-0.10;99.90
39371;DHT22;25099;51.946;4.838;2022-12-18T15:56:10;-0.10;99.90
39371;DHT22;25099;51.946;4.838;2022-12-18T15:58:55;-0.10;99.90
39371;DHT22;25099;51.946;4.838;2022-12-18T16:01:23;-0.10;99.90
39371;DHT22;25099;51.946;4.838;2022-12-18T16:03:49;-0.10;99.90
39371;DHT22;25099;51.946;4.838;2022-12-18T16:06:15;-0.10;99.90
39371;DHT22;25099;51.946;4.838;2022-12-18T16:08:40;-0.10;99.90
39371;DHT22;25099;51.946;4.838;2022-12-18T16:13:42;0.00;99.90
39371;DHT22;25099;51.946;4.838;2022-12-18T16:16:08;0.00;99.90
39371;DHT22;25099;51.946;4.838;2022-12-18T16:18:34;0.00;99.90
39371;DHT22;25099;51.946;4.838;2022-12-18T16:21:01;0.00;99.90
39371;DHT22;25099;51.946;4.838;2022-12-18T16:23:27;0.00;99.90
39371;DHT22;25099;51.946;4.838;2022-12-18T16:25:52;0.00;99.90
39371;DHT22;25099;51.946;4.838;2022-12-18T16:28:18;0.00;99.90
39371;DHT22;25099;51.946;4.838;2022-12-18T16:30:44;0.00;99.90
39371;DHT22;25099;51.946;4.838;2022-12-18T16:33:10;0.00;99.90
39371;DHT22;25099;51.946;4.838;2022-12-18T16:35:36;0.00;99.90
39371;DHT22;25099;51.946;4.838;2022-12-18T16:38:02;0.00;99.90
39371;DHT22;25099;51.946;4.838;2022-12-18T16:40:31;0.10;99.90
39371;DHT22;25099;51.946;4.838;2022-12-18T16:42:57;0.00;99.90
39371;DHT22;25099;51.946;4.838;2022-12-18T16:45:22;0.00;99.90
39371;DHT22;25099;51.946;4.838;2022-12-18T16:47:48;0.10;99.90
39371;DHT22;25099;51.946;4.838;2022-12-18T16:50:14;0.10;99.90
39371;DHT22;25099;51.946;4.838;2022-12-18T16:52:40;0.10;99.90
39371;DHT22;25099;51.946;4.838;2022-12-18T16:55:07;0.10;99.90
39371;DHT22;25099;51.946;4.838;2022-12-18T16:57:33;0.10;99.90
39371;DHT22;25099;51.946;4.838;2022-12-18T16:59:58;1.60;99.90
39371;DHT22;25099;51.946;4.838;2022-12-18T17:02:25;0.20;99.90
39371;DHT22;25099;51.946;4.838;2022-12-18T17:04:56;0.20;99.90
39371;DHT22;25099;51.946;4.838;2022-12-18T17:07:22;0.20;99.90
39371;DHT22;25099;51.946;4.838;2022-12-18T17:09:48;0.20;99.90
39371;DHT22;25099;51.946;4.838;2022-12-18T17:12:15;0.20;99.90
39371;DHT22;25099;51.946;4.838;2022-12-18T17:14:41;0.30;99.90
39371;DHT22;25099;51.946;4.838;2022-12-18T17:17:06;0.30;99.90
39371;DHT22;25099;51.946;4.838;2022-12-18T17:19:32;0.30;99.90
39371;DHT22;25099;51.946;4.838;2022-12-18T17:21:57;0.30;99.90
39371;DHT22;25099;51.946;4.838;2022-12-18T17:24:23;0.30;99.90
39371;DHT22;25099;51.946;4.838;2022-12-18T17:26:49;0.40;99.90
39371;DHT22;25099;51.946;4.838;2022-12-18T17:29:17;0.30;99.90
39371;DHT22;25099;51.946;4.838;2022-12-18T17:31:43;0.30;99.90
39371;DHT22;25099;51.946;4.838;2022-12-18T17:34:10;0.30;99.90
39371;DHT22;25099;51.946;4.838;2022-12-18T17:36:36;0.30;99.90
39371;DHT22;25099;51.946;4.838;2022-12-18T17:39:03;0.40;99.90
39371;DHT22;25099;51.946;4.838;2022-12-18T17:41:30;0.40;99.90